Wednesday, January 28, 2015, 1:31 AM EST

KOXB, Ocean City Municipal Airport

Location: Berlin, MD, United States Lat: 38.317
Local Time: 1:31 AM EST ( 6:31 GMT) Lon: -75.117
Time Zone: US/Eastern Elev: 13 ft

Show me the last for .
Show Decoded

2015-01-28 00:53 METAR KOXB 280553Z AUTO 32011KT 10SM CLR M02/M09 A2989 RMK AO2 SLP123 T10221089
                 10000 21022 51017 TSNO =
2015-01-27 23:53 METAR KOXB 280453Z AUTO 32010KT 10SM CLR M02/M08 A2988 RMK AO2 SLP118 T10171083
                 400111022 TSNO =
2015-01-27 22:53 METAR KOXB 280353Z AUTO 33011G19KT 10SM CLR M01/M07 A2986 RMK AO2 SLP112
                 T10111072 TSNO =
2015-01-27 21:53 METAR KOXB 280253Z AUTO 33009KT 10SM CLR M01/M07 A2984 RMK AO2 SLP105 T10111067
                 51015 TSNO =
2015-01-27 20:53 METAR KOXB 280153Z AUTO 32009KT 10SM CLR M01/M07 A2983 RMK AO2 SLP101 T10061072
                 TSNO =
2015-01-27 19:53 METAR KOXB 280053Z AUTO 33009KT 10SM CLR M01/M06 A2981 RMK AO2 SLP095 T10061061
                 TSNO =
2015-01-27 18:53 METAR KOXB 272353Z AUTO 33008KT 10SM CLR 00/M06 A2980 RMK AO2 SLP090 T00001061
                 10006 21006 53025 TSNO =
2015-01-27 17:53 METAR KOXB 272253Z AUTO 32006KT 10SM CLR 00/M05 A2977 RMK AO2 SLP082 T00001050
                 TSNO =
2015-01-27 16:53 METAR KOXB 272153Z AUTO 31006KT 10SM FEW033 01/M04 A2974 RMK AO2 SLP070
                 T00061044 TSNO =
2015-01-27 16:21 METAR KOXB 272121Z AUTO 32010KT 10SM SCT024 01/M04 A2973 RMK AO2 T00061044 TSNO
                 =
2015-01-27 15:53 METAR KOXB 272053Z AUTO 33009G16KT 10SM OVC024 01/M04 A2973 RMK AO2 SLP065
                 T00061039 53007 TSNO =
2015-01-27 14:53 METAR KOXB 271953Z AUTO 34010KT 10SM OVC021 00/M04 A2971 RMK AO2 SLP061
                 T00001039 TSNO =
2015-01-27 13:53 METAR KOXB 271853Z AUTO 35012KT 10SM OVC020 00/M04 A2971 RMK AO2 SLP060
                 T00001039 TSNO =
2015-01-27 12:53 METAR KOXB 271753Z AUTO 33011G19KT 10SM OVC020 00/M04 A2971 RMK AO2 SLP059
                 T00001039 10006 21022 58006 TSNO =
2015-01-27 11:53 METAR KOXB 271653Z AUTO 35012G20KT 10SM OVC021 00/M04 A2971 RMK AO2 SLP061
                 T00001044 TSNO =
2015-01-27 10:53 METAR KOXB 271553Z AUTO 35014G22KT 10SM BKN022 00/M04 A2972 RMK AO2 SLP064
                 T00001044 TSNO =
2015-01-27 09:53 METAR KOXB 271453Z AUTO 35013G18KT 10SM BKN020 OVC030 M01/M04 A2972 RMK AO2
                 SLP065 T10111044 50013 TSNO =
2015-01-27 08:53 METAR KOXB 271353Z AUTO 35017G23KT 10SM OVC022 M02/M06 A2973 RMK AO2 SLP065
                 T10171056 TSNO =
2015-01-27 07:53 METAR KOXB 271253Z AUTO 34013G19KT 10SM OVC020 M02/M06 A2971 RMK AO2 SLP060
                 T10221056 TSNO =
2015-01-27 06:53 METAR KOXB 271153Z AUTO 34015G19KT 10SM OVC020 M02/M06 A2968 RMK AO2 SLP051
                 60000 70068 T10221056 11006 21022 53016 TSNO =
2015-01-27 05:53 METAR KOXB 271053Z AUTO 35013G20KT 10SM OVC018 M02/M05 A2966 RMK AO2 SLP043
                 T10171050 TSNO =
2015-01-27 04:53 METAR KOXB 270953Z AUTO 35014G23KT 10SM OVC018 M01/M04 A2965 RMK AO2 SLP041
                 T10111044 TSNO =
2015-01-27 03:53 METAR KOXB 270853Z AUTO 36011G21KT 10SM OVC016 M01/M04 A2964 RMK AO2 SNE0759
                 SLP036 P0000 60000 T10111039 51012 TSNO =
2015-01-27 03:32 METAR KOXB 270832Z AUTO 35011KT 10SM OVC016 M01/M03 A2964 RMK AO2 SNE0759 P0000
                 T10111033 TSNO =
2015-01-27 03:11 METAR KOXB 270811Z AUTO 35012G22KT 10SM OVC014 M01/M03 A2963 RMK AO2 SNE0759
                 P0000 T10111033 TSNO =
2015-01-27 03:04 METAR KOXB 270804Z AUTO 35013G19KT 9SM OVC016 M01/M03 A2963 RMK AO2 SNE0759
                 P0000 T10111028 TSNO =
2015-01-27 02:53 METAR KOXB 270753Z AUTO 35015G21KT 5SM -SN BR OVC014 M01/M03 A2963 RMK AO2 SNB49
                 SLP032 P0000 T10111028 TSNO =
2015-01-27 02:18 METAR KOXB 270718Z AUTO 36014G20KT 5SM BR BKN014 BKN021 OVC029 M01/M03 A2962 RMK
                 AO2 T10061028 TSNO =
2015-01-27 01:53 METAR KOXB 270653Z AUTO 36014G23KT 4SM BR BKN016 BKN021 OVC029 M01/M03 A2962 RMK
                 AO2 SLP031 T10061028 TSNO =

Support USWX by starting your Amazon purchase here.